Time;durP1;ratioP1;P1;durP2;ratioP2;P2;SDS_P1;SDS_P2;PMS_P1;PMS_P2;Temp;Humidity;BMP_temperature;BMP_pressure;BME280_temperature;BME280_humidity;BME280_pressure;Samples;Min_cycle;Max_cycle;Signal;HPM_P1;HPM_P2
2024/04/12 00:01:48;;;;;;;;;30.33;27.33;;;;;12.68;100.00;100855.09;6271759;20;3579426;-43
2024/04/12 00:04:20;;;;;;;;;22.00;22.00;;;;;12.64;100.00;100849.00;6269689;20;2854995;-43
2024/04/12 00:06:52;;;;;;;;;30.67;30.00;;;;;12.60;100.00;100843.84;6301590;20;3597581;-43
2024/04/12 00:09:23;;;;;;;;;29.00;28.00;;;;;12.31;100.00;100835.41;6268504;20;2853638;-43
2024/04/12 00:11:55;;;;;;;;;27.67;26.67;;;;;12.29;100.00;100832.78;6303576;20;3598222;-42
2024/04/12 00:14:23;;;;;;;;;29.33;28.00;;;;;12.47;100.00;100844.44;6273338;20;3600264;-43
2024/04/12 00:16:52;;;;;;;;;28.33;27.00;;;;;12.43;100.00;100839.31;6274228;20;3598174;-42
2024/04/12 00:19:22;;;;;;;;;31.00;28.00;;;;;12.43;100.00;100844.72;6272897;20;3606591;-42
2024/04/12 00:21:59;;;;;;;;;33.00;30.67;;;;;12.29;100.00;100840.00;6273799;20;3584717;-43
2024/04/12 00:24:29;;;;;;;;;33.00;30.00;;;;;12.21;100.00;100844.91;6273276;20;3584791;-43
2024/04/12 00:26:58;;;;;;;;;29.00;27.00;;;;;12.29;100.00;100845.38;6268043;20;2864997;-43
2024/04/12 00:29:30;;;;;;;;;29.00;26.33;;;;;12.36;100.00;100848.66;6302460;20;3592987;-43
2024/04/12 00:32:03;;;;;;;;;26.67;26.67;;;;;12.36;100.00;100856.72;6272291;20;3600298;-43
2024/04/12 00:34:38;;;;;;;;;31.67;30.00;;;;;12.13;100.00;100852.47;6268483;20;2852393;-43
2024/04/12 00:37:07;;;;;;;;;30.33;28.67;;;;;12.37;100.00;100867.41;6305755;20;3578422;-43
2024/04/12 00:39:38;;;;;;;;;28.00;28.00;;;;;12.08;100.00;100858.97;6276973;20;3595025;-52
2024/04/12 00:42:09;;;;;;;;;28.50;28.50;;;;;11.96;100.00;100847.94;6275996;20;2842070;-43
2024/04/12 00:44:45;;;;;;;;;28.67;28.00;;;;;11.61;100.00;100848.66;6278791;20;3575303;-43
2024/04/12 00:47:15;;;;;;;;;29.00;29.00;;;;;11.60;100.00;100846.88;6271901;20;3592023;-43
2024/04/12 00:49:49;;;;;;;;;33.67;31.00;;;;;11.53;100.00;100837.38;6270304;20;3600336;-43
2024/04/12 00:52:23;;;;;;;;;36.00;32.00;;;;;11.90;100.00;100846.41;6270727;20;2847243;-43
2024/04/12 00:55:06;;;;;;;;;33.00;29.33;;;;;11.74;100.00;100845.34;6271302;20;3587825;-43
2024/04/12 00:57:39;;;;;;;;;27.67;25.00;;;;;11.30;100.00;100845.66;6275600;20;3579472;-43
2024/04/12 01:00:19;;;;;;;;;41.00;33.00;;;;;11.72;100.00;100841.91;6276291;20;3607771;-43
2024/04/12 01:02:48;;;;;;;;;31.00;30.00;;;;;11.36;100.00;100845.34;6270793;20;3585824;-44
2024/04/12 01:05:19;;;;;;;;;30.33;29.33;;;;;11.34;100.00;100837.34;6271318;20;2844128;-43
2024/04/12 01:07:50;;;;;;;;;32.00;30.33;;;;;11.45;100.00;100836.84;6300349;20;3587884;-43
2024/04/12 01:10:26;;;;;;;;;34.33;32.33;;;;;11.28;100.00;100831.41;6279107;20;3607584;-43
2024/04/12 01:12:57;;;;;;;;;34.67;32.00;;;;;11.04;100.00;100831.56;6280033;20;3584680;-42
2024/04/12 01:15:37;;;;;;;;;30.33;28.33;;;;;11.19;100.00;100830.88;6276846;20;3582673;-43
2024/04/12 01:18:14;;;;;;;;;32.00;29.67;;;;;11.32;100.00;100823.13;6274218;20;2839271;-43
2024/04/12 01:20:43;;;;;;;;;43.00;36.00;;;;;11.29;100.00;100828.63;6306917;20;2849322;-43
2024/04/12 01:23:15;;;;;;;;;34.67;30.00;;;;;11.25;100.00;100826.16;6310341;20;3594062;-43
2024/04/12 01:25:44;;;;;;;;;26.67;26.67;;;;;11.28;100.00;100821.50;6278939;20;3582592;-42
2024/04/12 01:28:13;;;;;;;;;31.33;29.67;;;;;11.29;100.00;100834.00;6276871;20;3594028;-44
2024/04/12 01:30:41;;;;;;;;;30.00;28.00;;;;;11.22;100.00;100832.56;6273486;20;3580590;-43
2024/04/12 01:33:13;;;;;;;;;34.33;32.00;;;;;11.23;100.00;100828.91;6275413;20;2840982;-43
2024/04/12 01:35:44;;;;;;;;;35.00;30.00;;;;;11.20;100.00;100827.22;6311194;20;3598183;-43
2024/04/12 01:38:18;;;;;;;;;31.67;30.33;;;;;11.25;100.00;100820.78;6277262;20;3576295;-43
2024/04/12 01:40:57;;;;;;;;;33.67;29.67;;;;;11.17;100.00;100827.38;6306512;20;2856571;-43
2024/04/12 01:43:26;;;;;;;;;36.67;32.67;;;;;10.89;100.00;100825.06;6306868;20;3613786;-43
2024/04/12 01:45:54;;;;;;;;;34.00;29.00;;;;;11.08;100.00;100825.09;6274502;20;2845056;-43
2024/04/12 01:48:23;;;;;;;;;35.00;30.00;;;;;11.05;100.00;100830.63;6274919;20;2850611;-44
2024/04/12 01:50:51;;;;;;;;;35.00;32.00;;;;;10.93;100.00;100829.38;6303450;20;2856593;-43
2024/04/12 01:53:21;;;;;;;;;32.00;30.00;;;;;11.30;100.00;100832.19;6307723;20;3588790;-43
2024/04/12 01:55:50;;;;;;;;;31.33;30.00;;;;;11.05;100.00;100833.31;6272206;20;2837743;-43
2024/04/12 01:58:19;;;;;;;;;36.33;33.00;;;;;10.91;100.00;100831.25;6306548;20;3578421;-43
2024/04/12 02:00:49;;;;;;;;;23.50;22.00;;;;;10.70;100.00;100830.38;6273921;20;2841110;-44
2024/04/12 02:03:17;;;;;;;;;33.33;30.00;;;;;10.74;100.00;100826.63;6278510;20;3590915;-43
2024/04/12 02:05:48;;;;;;;;;32.50;29.50;;;;;10.47;100.00;100827.81;6274762;20;2852389;-42
2024/04/12 02:08:18;;;;;;;;;32.00;28.67;;;;;10.25;100.00;100831.38;6277139;20;3600471;-43
2024/04/12 02:10:48;;;;;;;;;40.33;34.00;;;;;10.64;100.00;100832.47;6273068;20;2872324;-43
2024/04/12 02:13:20;;;;;;;;;30.00;29.67;;;;;10.51;100.00;100832.13;6309351;20;3581573;-43
2024/04/12 02:15:53;;;;;;;;;37.33;32.67;;;;;10.60;100.00;100829.03;6274005;20;2850470;-43
2024/04/12 02:18:23;;;;;;;;;33.00;32.00;;;;;10.66;100.00;100842.19;6309278;20;3600293;-43
2024/04/12 02:20:52;;;;;;;;;36.67;33.33;;;;;10.52;100.00;100836.53;6275126;20;2857753;-42
2024/04/12 02:23:20;;;;;;;;;27.00;26.67;;;;;10.69;100.00;100842.06;6307462;20;3582683;-43
2024/04/12 02:25:49;;;;;;;;;33.67;32.33;;;;;10.36;100.00;100852.44;6271895;20;2841155;-43
2024/04/12 02:28:18;;;;;;;;;33.33;28.67;;;;;10.04;100.00;100841.19;6309203;20;3601359;-43
2024/04/12 02:30:55;;;;;;;;;36.33;30.67;;;;;10.01;100.00;100845.81;6274087;20;2847197;-43
2024/04/12 02:33:27;;;;;;;;;34.33;31.00;;;;;10.43;100.00;100847.69;6304477;20;3587843;-43
2024/04/12 02:36:12;;;;;;;;;34.33;30.67;;;;;10.54;100.00;100845.41;6273008;20;2844085;-44
2024/04/12 02:38:43;;;;;;;;;31.67;30.33;;;;;10.15;100.00;100855.97;6308260;20;3587761;-42
2024/04/12 02:41:13;;;;;;;;;32.50;31.00;;;;;10.15;100.00;100859.53;6274458;20;2837782;-42
2024/04/12 02:43:44;;;;;;;;;38.67;33.67;;;;;10.51;100.00;100858.97;6275659;20;2856615;-45
2024/04/12 02:46:13;;;;;;;;;33.33;31.67;;;;;9.27;100.00;100848.69;6304789;20;3596190;-43
2024/04/12 02:48:47;;;;;;;;;33.33;31.33;;;;;9.58;100.00;100843.00;6270067;20;2850339;-43
2024/04/12 02:51:18;;;;;;;;;35.00;32.67;;;;;9.74;100.00;100845.09;6307837;20;3587746;-43
2024/04/12 02:53:48;;;;;;;;;42.33;34.00;;;;;9.82;100.00;100857.28;6270378;20;3611745;-44
2024/04/12 02:56:18;;;;;;;;;36.67;34.33;;;;;9.62;100.00;100855.38;6304823;20;3601778;-42
2024/04/12 02:58:51;;;;;;;;;33.67;31.00;;;;;9.45;100.00;100864.06;6274100;20;2848235;-43
2024/04/12 03:01:24;;;;;;;;;34.00;32.00;;;;;9.88;100.00;100870.44;6306217;20;3584669;-43
2024/04/12 03:03:58;;;;;;;;;38.00;30.67;;;;;9.87;100.00;100874.06;6272742;20;2874415;-42
2024/04/12 03:06:32;;;;;;;;;32.00;30.33;;;;;9.47;100.00;100860.44;6309255;20;3591997;-45
2024/04/12 03:09:01;;;;;;;;;38.33;34.00;;;;;9.65;100.00;100867.78;6272905;20;2860967;-46
2024/04/12 03:11:34;;;;;;;;;38.00;32.00;;;;;9.82;100.00;100873.38;6307309;20;3603882;-43
2024/04/12 03:14:08;;;;;;;;;31.50;31.50;;;;;9.18;100.00;100875.81;6273961;20;2845163;-44
2024/04/12 03:16:42;;;;;;;;;35.67;33.67;;;;;9.56;100.00;100860.97;6274999;20;2853659;-43
2024/04/12 03:19:13;;;;;;;;;31.67;29.00;;;;;9.63;100.00;100866.97;6302610;20;3589823;-43
2024/04/12 03:21:42;;;;;;;;;33.50;32.00;;;;;9.45;100.00;100869.44;6273450;20;2850393;-43
2024/04/12 03:24:10;;;;;;;;;34.67;32.33;;;;;9.83;100.00;100864.38;6274659;20;2852397;-45
2024/04/12 03:26:38;;;;;;;;;32.00;29.67;;;;;10.19;100.00;100866.53;6305018;20;3580501;-43
2024/04/12 03:29:06;;;;;;;;;36.50;33.50;;;;;10.45;100.00;100867.28;6271216;20;2853538;-44
2024/04/12 03:31:38;;;;;;;;;34.67;32.00;;;;;10.03;100.00;100876.13;6277374;20;3611755;-44
2024/04/12 03:34:08;;;;;;;;;36.00;34.00;;;;;10.28;100.00;100871.53;6272165;20;2849461;-44
2024/04/12 03:41:59;;;;;;;;;60.00;48.00;;;;;9.64;100.00;100868.72;6304457;20;2868056;-43
2024/04/12 03:44:31;;;;;;;;;50.00;41.33;;;;;9.85;100.00;100878.63;6306315;20;3609730;-43
2024/04/12 03:47:09;;;;;;;;;50.50;41.00;;;;;10.35;100.00;100882.91;6305286;20;2841041;-43
2024/04/12 03:49:40;;;;;;;;;44.00;37.67;;;;;10.52;100.00;100875.00;6270125;20;2862384;-43
2024/04/12 03:52:14;;;;;;;;;40.33;36.33;;;;;10.33;100.00;100874.91;6305210;20;2856633;-44
2024/04/12 03:54:42;;;;;;;;;36.33;33.67;;;;;10.03;100.00;100870.75;6305730;20;2860719;-45
2024/04/12 03:57:10;;;;;;;;;40.33;34.67;;;;;9.74;100.00;100870.13;6305958;20;3598153;-43
2024/04/12 03:59:42;;;;;;;;;40.00;34.00;;;;;9.87;100.00;100878.53;6272483;20;2866059;-43
2024/04/12 04:02:11;;;;;;;;;34.33;33.33;;;;;9.58;100.00;100877.00;6309284;20;3595537;-43
2024/04/12 04:04:45;;;;;;;;;34.67;31.67;;;;;9.94;100.00;100890.78;6271892;20;2850796;-42
2024/04/12 04:07:15;;;;;;;;;40.00;33.67;;;;;10.24;100.00;100899.44;6307045;20;3598205;-43
2024/04/12 04:09:45;;;;;;;;;37.33;34.67;;;;;10.00;100.00;100909.31;6271976;20;2855766;-42
2024/04/12 04:12:15;;;;;;;;;32.33;32.00;;;;;9.85;100.00;100905.44;6309798;20;3591977;-43
2024/04/12 04:14:49;;;;;;;;;32.33;31.33;;;;;9.94;100.00;100912.25;6277639;20;2849290;-43
2024/04/12 04:17:29;;;;;;;;;33.67;30.33;;;;;9.71;100.00;100918.50;6310900;20;3594092;-43
2024/04/12 04:19:57;;;;;;;;;40.67;35.00;;;;;9.40;100.00;100924.13;6276661;20;2862930;-42
2024/04/12 04:24:59;;;;;;;;;40.33;36.00;;;;;9.30;100.00;100923.59;6276801;20;2858718;-43
2024/04/12 04:27:27;;;;;;;;;37.33;32.00;;;;;9.47;100.00;100930.16;6311802;20;3586857;-44
2024/04/12 04:29:55;;;;;;;;;40.33;34.33;;;;;9.62;100.00;100932.25;6274457;20;3604450;-44
2024/04/12 04:32:25;;;;;;;;;33.00;32.67;;;;;9.70;100.00;100927.47;6313284;20;3583614;-44
2024/04/12 04:35:08;;;;;;;;;39.00;33.33;;;;;9.74;100.00;100929.13;6276770;20;2857702;-46
2024/04/12 04:37:40;;;;;;;;;47.00;37.00;;;;;9.79;100.00;100919.06;6311495;20;3596085;-46
2024/04/12 04:40:17;;;;;;;;;42.50;37.50;;;;;9.87;100.00;100919.69;6274772;20;2489913;-46
2024/04/12 04:42:49;;;;;;;;;35.33;33.67;;;;;10.31;100.00;100925.09;6279634;20;3594026;-45
2024/04/12 04:45:21;;;;;;;;;36.00;33.50;;;;;10.37;100.00;100923.97;6276434;20;2843077;-46
2024/04/12 04:47:49;;;;;;;;;35.00;31.67;;;;;10.49;100.00;100911.88;6280061;20;3578464;-44
2024/04/12 04:50:19;;;;;;;;;25.67;24.67;;;;;10.74;100.00;100909.91;6276847;20;2850528;-42
2024/04/12 04:52:46;;;;;;;;;31.33;30.33;;;;;12.23;100.00;100911.19;6311221;20;3588857;-45
2024/04/12 04:55:15;;;;;;;;;35.00;31.67;;;;;12.47;100.00;100919.88;6276049;20;2853628;-43
2024/04/12 04:57:47;;;;;;;;;27.67;27.67;;;;;12.87;100.00;100923.25;6311847;20;3588799;-45
2024/04/12 05:00:21;;;;;;;;;29.00;28.00;;;;;13.02;94.90;100924.28;6279537;20;3590334;-43
2024/04/12 05:02:50;;;;;;;;;29.33;28.00;;;;;12.61;100.00;100918.31;6279501;20;3594152;-45
2024/04/12 05:05:23;;;;;;;;;7.50;7.00;;;;;12.44;100.00;100917.34;6278604;20;2757614;-43
2024/04/12 05:07:52;;;;;;;;;30.67;27.67;;;;;12.82;100.00;100919.94;6279370;20;3586733;-44
2024/04/12 05:10:21;;;;;;;;;32.33;31.00;;;;;12.55;100.00;100927.56;6280425;20;3593033;-42
2024/04/12 05:12:53;;;;;;;;;28.67;25.33;;;;;12.50;100.00;100935.88;6275092;20;2848276;-43
2024/04/12 05:18:09;;;;;;;;;35.00;30.67;;;;;12.39;100.00;100940.06;6276597;20;2860939;-43
2024/04/12 05:20:41;;;;;;;;;31.00;25.67;;;;;12.85;100.00;100946.75;6311980;20;3598175;-43
2024/04/12 05:23:17;;;;;;;;;28.00;24.00;;;;;13.09;100.00;100939.22;6281141;20;3597180;-43
2024/04/12 05:25:51;;;;;;;;;24.00;23.00;;;;;13.18;99.44;100936.03;6280114;20;3592997;-42
2024/04/12 05:28:26;;;;;;;;;22.00;20.67;;;;;13.50;97.89;100929.91;6281869;20;3586745;-43
2024/04/12 05:30:54;;;;;;;;;29.00;26.00;;;;;13.97;92.36;100934.53;6273592;20;3609718;-43
2024/04/12 05:33:23;;;;;;;;;27.33;25.67;;;;;13.58;93.82;100935.75;6278965;20;3598162;-42
2024/04/12 05:35:51;;;;;;;;;27.00;25.00;;;;;13.25;97.30;100933.88;6278111;20;3602423;-42
2024/04/12 05:38:21;;;;;;;;;27.33;25.33;;;;;13.39;95.30;100936.75;6278832;20;3594159;-42
2024/04/12 05:40:52;;;;;;;;;28.33;27.33;;;;;14.39;91.46;100936.63;6280633;20;3591980;-43
2024/04/12 05:43:21;;;;;;;;;23.00;23.00;;;;;15.15;85.42;100947.50;6275799;20;3582571;-44
2024/04/12 05:45:51;;;;;;;;;27.00;24.67;;;;;15.48;86.24;100945.50;6279143;20;3594050;-44
2024/04/12 05:48:21;;;;;;;;;26.33;22.67;;;;;17.64;68.93;100952.06;6278081;20;3585723;-42
2024/04/12 05:50:56;;;;;;;;;28.00;26.00;;;;;15.83;76.38;100954.19;6280624;20;3603414;-43
2024/04/12 05:53:30;;;;;;;;;22.00;22.00;;;;;15.26;80.83;100959.50;6280439;20;3587774;-43
2024/04/12 05:58:45;;;;;;;;;24.33;23.67;;;;;15.91;79.41;100961.84;6275364;20;3593001;-43
2024/04/12 06:01:12;;;;;;;;;29.67;27.00;;;;;15.96;78.04;100973.25;6309293;20;3594161;-43
2024/04/12 06:03:42;;;;;;;;;26.00;25.33;;;;;15.48;80.50;100981.59;6274150;20;3589910;-45
2024/04/12 06:06:13;;;;;;;;;22.67;22.67;;;;;14.98;83.81;100980.13;6276761;20;3590040;-44
2024/04/12 06:08:41;;;;;;;;;24.00;23.33;;;;;15.68;80.81;100976.78;6276969;20;3598302;-42
2024/04/12 06:11:09;;;;;;;;;24.33;24.33;;;;;15.29;82.64;100980.97;6278788;20;3585898;-42
2024/04/12 06:13:40;;;;;;;;;24.33;22.67;;;;;15.65;81.68;100987.81;6280647;20;3578378;-43
2024/04/12 06:16:08;;;;;;;;;27.33;25.33;;;;;15.63;79.42;100989.72;6276297;20;2854678;-42
2024/04/12 06:18:36;;;;;;;;;22.00;22.00;;;;;15.84;77.56;100992.97;6305383;20;2733907;-44
2024/04/12 06:21:04;;;;;;;;;25.00;23.00;;;;;15.74;76.98;100987.25;6310143;20;3600338;-43
2024/04/12 06:23:33;;;;;;;;;21.67;21.67;;;;;15.71;77.96;100988.31;6278786;20;3579458;-45
2024/04/12 06:26:00;;;;;;;;;24.33;21.67;;;;;15.80;75.17;100997.72;6276918;20;3584668;-45
2024/04/12 06:28:30;;;;;;;;;25.00;23.33;;;;;16.23;74.83;101005.84;6279830;20;3591987;-44
2024/04/12 06:30:59;;;;;;;;;29.00;25.33;;;;;16.29;76.29;101005.44;6276835;20;3595111;-43
2024/04/12 06:33:28;;;;;;;;;24.00;24.00;;;;;16.43;73.69;101007.28;6279986;20;3584679;-44
2024/04/12 06:36:05;;;;;;;;;22.00;21.67;;;;;16.96;72.36;101004.72;6279509;20;3585668;-43
2024/04/12 06:38:33;;;;;;;;;25.00;22.33;;;;;16.62;72.83;101004.22;6277906;20;3583591;-43
2024/04/12 06:41:02;;;;;;;;;24.67;23.33;;;;;16.99;70.29;101004.53;6280746;20;3595062;-42
2024/04/12 06:43:33;;;;;;;;;25.67;24.00;;;;;17.04;69.53;101003.22;6277800;20;3598213;-43
2024/04/12 06:46:11;;;;;;;;;24.33;23.00;;;;;16.32;70.68;100999.81;6278167;20;3589846;-42
2024/04/12 06:48:41;;;;;;;;;22.33;21.00;;;;;16.77;68.37;101003.25;6277171;20;2846965;-43
2024/04/12 06:51:13;;;;;;;;;24.33;22.33;;;;;16.85;70.17;101006.31;6311586;20;3582587;-43
2024/04/12 06:53:44;;;;;;;;;21.33;20.33;;;;;16.88;69.54;100997.97;6280467;20;3581504;-43
2024/04/12 06:56:15;;;;;;;;;18.67;18.67;;;;;17.24;66.99;100999.16;6278000;20;3565371;-42
2024/04/12 06:58:48;;;;;;;;;24.00;23.00;;;;;17.49;64.78;100992.91;6273460;20;3587779;-43
2024/04/12 07:01:21;;;;;;;;;24.67;21.00;;;;;17.49;67.21;101000.19;6280792;20;3563878;-43
2024/04/12 07:03:52;;;;;;;;;24.00;21.67;;;;;17.97;65.98;101001.31;6278430;20;3580510;-42
2024/04/12 07:06:19;;;;;;;;;20.00;19.00;;;;;18.11;63.01;101000.31;6274632;20;2831606;-43
2024/04/12 07:08:50;;;;;;;;;21.67;18.33;;;;;18.50;62.94;100998.41;6273347;20;2839863;-44
2024/04/12 07:11:21;;;;;;;;;20.00;20.00;;;;;17.96;61.54;100998.72;6308793;20;2838952;-43
2024/04/12 07:13:53;;;;;;;;;25.00;21.33;;;;;17.39;65.62;101007.22;6310478;20;3573307;-43
2024/04/12 07:16:21;;;;;;;;;21.33;19.00;;;;;18.09;62.73;101007.72;6278571;20;3577405;-43
2024/04/12 07:18:50;;;;;;;;;18.33;17.33;;;;;18.03;63.36;101016.31;6274516;20;3557624;-43
2024/04/12 07:21:22;;;;;;;;;23.50;21.50;;;;;18.21;64.12;101014.97;6275613;20;2842529;-42
2024/04/12 07:23:51;;;;;;;;;23.00;20.67;;;;;18.10;64.36;101014.91;6274354;20;3582592;-42
2024/04/12 07:26:27;;;;;;;;;25.00;22.00;;;;;18.84;61.62;101025.84;6309392;20;3586787;-43
2024/04/12 07:28:59;;;;;;;;;20.67;20.67;;;;;19.27;60.93;101018.03;6278107;20;3585706;-44
2024/04/12 07:31:36;;;;;;;;;19.00;19.00;;;;;18.54;61.18;101013.53;6272211;20;3559699;-45
2024/04/12 07:34:08;;;;;;;;;15.67;15.67;;;;;18.38;61.21;101018.34;6275891;20;3554424;-43
2024/04/12 07:36:37;;;;;;;;;21.33;19.00;;;;;19.26;61.13;101021.72;6310088;20;3581936;-43
2024/04/12 07:39:07;;;;;;;;;21.00;21.00;;;;;18.50;59.99;101012.00;6274041;20;2834652;-45
2024/04/12 07:41:43;;;;;;;;;19.67;19.67;;;;;19.66;59.60;101012.31;6277582;20;3565975;-45
2024/04/12 07:44:12;;;;;;;;;22.33;21.00;;;;;18.45;60.31;101018.75;6278013;20;3575362;-45
2024/04/12 07:46:49;;;;;;;;;24.33;24.33;;;;;20.05;58.09;101021.09;6282358;20;3587852;-46
2024/04/12 07:49:17;;;;;;;;;22.33;19.33;;;;;19.12;58.70;101030.09;6280069;20;3579486;-48
2024/04/12 07:51:47;;;;;;;;;22.00;20.00;;;;;19.66;59.12;101021.38;6278029;20;2836918;-46
2024/04/12 07:54:16;;;;;;;;;21.33;20.33;;;;;18.58;59.98;101020.44;6315031;20;3577341;-45
2024/04/12 07:57:02;;;;;;;;;21.33;19.67;;;;;19.21;59.80;101028.50;6285283;20;3575269;-45
2024/04/12 07:59:30;;;;;;;;;18.00;17.00;;;;;19.41;59.12;101029.72;6275086;20;2831592;-48
2024/04/12 08:01:57;;;;;;;;;21.00;21.00;;;;;18.79;59.66;101034.34;6283113;20;3583620;-44
2024/04/12 08:04:26;;;;;;;;;26.00;20.00;;;;;19.38;58.83;101024.47;6284119;20;3583707;-48
2024/04/12 08:06:56;;;;;;;;;20.33;18.67;;;;;20.83;55.55;101031.97;6282141;20;3554476;-44
2024/04/12 08:09:34;;;;;;;;;19.00;19.00;;;;;20.11;56.37;101031.50;6278878;20;2718017;-45
2024/04/12 08:12:23;;;;;;;;;23.00;21.67;;;;;19.55;57.55;101025.91;6313910;20;3574352;-47
2024/04/12 08:14:52;;;;;;;;;30.75;25.00;;;;;20.24;55.27;101025.91;6283272;20;3596119;-44
2024/04/12 08:17:25;;;;;;;;;21.33;19.67;;;;;19.29;56.69;101026.06;6312530;20;3579001;-45
2024/04/12 08:19:57;;;;;;;;;20.67;20.67;;;;;19.69;56.77;101021.13;6285621;20;3582644;-48
2024/04/12 08:22:26;;;;;;;;;19.00;19.00;;;;;19.89;55.09;101029.63;6283453;20;3583714;-45
2024/04/12 08:24:55;;;;;;;;;21.00;20.67;;;;;19.61;56.64;101026.28;6281179;20;3569003;-46
2024/04/12 08:27:24;;;;;;;;;22.67;21.00;;;;;20.30;56.54;101029.03;6277724;20;2837784;-46
2024/04/12 08:29:55;;;;;;;;;27.00;23.00;;;;;19.66;55.84;101020.50;6310183;20;3589912;-46
2024/04/12 08:32:31;;;;;;;;;24.00;23.67;;;;;19.71;56.30;101021.03;6284285;20;3587800;-46
2024/04/12 08:35:03;;;;;;;;;20.33;19.00;;;;;20.10;55.17;101017.00;6282430;20;3562837;-47
2024/04/12 08:37:36;;;;;;;;;23.00;23.00;;;;;20.43;56.16;101017.09;6280799;20;3586746;-45
2024/04/12 08:40:09;;;;;;;;;23.33;23.33;;;;;20.26;56.25;101022.06;6284109;20;3596196;-45
2024/04/12 08:42:38;;;;;;;;;22.00;21.67;;;;;19.42;57.86;101010.50;6283277;20;3586740;-45
2024/04/12 08:45:14;;;;;;;;;21.67;21.33;;;;;20.14;57.49;101013.03;6283135;20;3580573;-46
2024/04/12 08:47:51;;;;;;;;;22.00;21.00;;;;;20.02;57.65;101004.97;6282683;20;3579878;-48
2024/04/12 08:50:24;;;;;;;;;23.33;21.33;;;;;20.06;56.87;101007.31;6281252;20;3580616;-46
2024/04/12 08:52:53;;;;;;;;;22.33;22.33;;;;;20.71;56.10;101013.88;6281557;20;3591956;-51
2024/04/12 08:55:28;;;;;;;;;20.50;19.00;;;;;21.53;54.17;101012.47;6279901;20;2827400;-47
2024/04/12 08:58:01;;;;;;;;;22.33;22.33;;;;;20.29;55.28;101008.19;6280277;20;3585721;-45
2024/04/12 09:00:33;;;;;;;;;22.33;21.00;;;;;21.08;54.03;101005.31;6284012;20;3578497;-45
2024/04/12 09:03:10;;;;;;;;;26.00;22.67;;;;;20.72;55.06;101006.53;6279455;20;3584669;-44
2024/04/12 09:05:40;;;;;;;;;17.00;17.00;;;;;21.44;54.01;101014.16;6279798;20;3552466;-43
2024/04/12 09:08:07;;;;;;;;;17.67;15.67;;;;;21.60;53.17;101008.22;6313974;20;3558697;-46
2024/04/12 09:10:36;;;;;;;;;22.33;20.67;;;;;21.68;52.47;101003.81;6312764;20;3578382;-45
2024/04/12 09:13:08;;;;;;;;;20.33;19.00;;;;;21.25;52.79;101002.03;6281906;20;3558681;-48
2024/04/12 09:15:41;;;;;;;;;23.00;23.00;;;;;20.96;55.50;101004.50;6285407;20;3586711;-44
2024/04/12 09:18:19;;;;;;;;;23.00;20.67;;;;;20.66;53.37;101007.06;6278945;20;3574507;-44
2024/04/12 09:21:00;;;;;;;;;17.00;15.00;;;;;21.50;52.69;100997.22;6280639;20;3555496;-44
2024/04/12 09:23:36;;;;;;;;;20.67;19.33;;;;;20.66;54.93;101001.59;6309979;20;3567008;-46
2024/04/12 09:26:21;;;;;;;;;24.00;21.00;;;;;20.77;53.77;100994.28;6281953;20;3580478;-47
2024/04/12 09:29:16;;;;;;;;;21.33;20.00;;;;;22.19;51.90;100996.63;6278853;20;3588007;-45
2024/04/12 09:34:35;;;;;;;;;17.33;17.33;;;;;22.63;49.10;100990.88;6283208;20;3563935;-47
2024/04/12 09:37:28;;;;;;;;;20.33;19.33;;;;;22.51;48.60;100988.25;6280631;20;3564838;-47
2024/04/12 09:42:47;;;;;;;;;16.00;14.00;;;;;22.21;49.66;100989.16;6279772;20;2805518;-48
2024/04/12 09:45:20;;;;;;;;;21.00;19.33;;;;;22.03;50.99;100977.09;6278855;20;3556645;-47
2024/04/12 10:38:54;;;;;;;;;17.00;15.50;;;;;23.03;45.60;100932.44;6306224;20;2827463;-48
2024/04/12 10:41:22;;;;;;;;;16.50;15.00;;;;;23.47;46.38;100943.78;6276148;20;2821275;-49
2024/04/12 10:43:51;;;;;;;;;15.50;15.50;;;;;23.37;45.41;100944.66;6277086;20;2821156;-47
2024/04/12 10:46:18;;;;;;;;;14.00;14.00;;;;;23.04;45.13;100936.88;6281639;20;3535737;-48
2024/04/12 10:48:46;;;;;;;;;17.00;14.50;;;;;22.71;45.73;100933.53;6307547;20;2821190;-47
2024/04/12 10:51:16;;;;;;;;;15.00;15.00;;;;;23.17;44.98;100937.44;6276716;20;2814853;-47
2024/04/12 10:53:46;;;;;;;;;18.00;16.00;;;;;22.99;45.56;100935.47;6277488;20;2834658;-46
2024/04/12 10:56:18;;;;;;;;;16.00;13.50;;;;;23.51;43.88;100931.50;6277718;20;2815614;-46
2024/04/12 10:58:56;;;;;;;;;16.00;16.00;;;;;23.14;43.97;100929.53;6275803;20;2825315;-46
2024/04/12 11:01:26;;;;;;;;;14.33;14.33;;;;;23.22;44.86;100933.28;6280274;20;3540992;-47
2024/04/12 11:03:56;;;;;;;;;16.00;15.00;;;;;22.55;45.68;100924.00;6311808;20;3552368;-47
2024/04/12 11:06:32;;;;;;;;;18.50;14.50;;;;;23.57;44.26;100922.69;6307691;20;2816938;-46
2024/04/12 11:09:07;;;;;;;;;19.50;15.00;;;;;23.14;45.65;100924.03;6276696;20;2825327;-46
2024/04/12 11:11:43;;;;;;;;;13.50;13.50;;;;;23.61;43.90;100926.84;6277258;20;2812876;-48
2024/04/12 11:14:27;;;;;;;;;16.00;14.67;;;;;23.54;44.92;100918.38;6281858;20;3545216;-47
2024/04/12 11:31:14;;;;;;;;;18.00;15.67;;;;;23.86;44.29;100892.47;6305332;20;3550301;-50
2024/04/12 11:33:51;;;;;;;;;14.00;14.00;;;;;23.75;43.67;100896.25;6273313;20;2810760;-48
2024/04/12 11:36:23;;;;;;;;;16.50;15.00;;;;;23.44;44.85;100885.50;6276175;20;2817142;-52
2024/04/12 11:38:53;;;;;;;;;15.50;15.50;;;;;23.80;44.00;100887.56;6275089;20;2815968;-48
2024/04/12 11:41:24;;;;;;;;;18.50;17.00;;;;;23.64;44.05;100883.56;6274972;20;2837776;-47
2024/04/12 11:43:54;;;;;;;;;12.67;12.67;;;;;23.80;45.16;100877.47;6279957;20;3539872;-46
2024/04/12 11:46:23;;;;;;;;;15.33;15.33;;;;;23.52;44.46;100878.41;6309432;20;3550691;-46
2024/04/12 11:48:55;;;;;;;;;19.33;16.33;;;;;22.77;45.34;100878.19;6307963;20;3566990;-47
2024/04/12 11:51:23;;;;;;;;;13.00;13.00;;;;;23.86;45.08;100882.34;6277796;20;2483666;-47
2024/04/12 11:53:50;;;;;;;;;15.50;14.50;;;;;24.32;43.55;100877.75;6305679;20;2816998;-47
2024/04/12 11:56:21;;;;;;;;;18.33;16.67;;;;;24.03;44.57;100866.09;6276282;20;2837811;-48
2024/04/12 11:58:51;;;;;;;;;17.33;16.67;;;;;23.58;44.61;100862.22;6305698;20;3560773;-47
2024/04/12 12:01:18;;;;;;;;;16.00;16.00;;;;;24.02;44.02;100867.97;6276949;20;3557546;-50
2024/04/12 12:03:45;;;;;;;;;18.33;17.33;;;;;24.27;43.53;100860.88;6309509;20;3555828;-51
2024/04/12 12:06:13;;;;;;;;;16.00;14.00;;;;;24.10;43.84;100858.97;6274638;20;2483699;-51
2024/04/12 12:08:41;;;;;;;;;17.33;17.33;;;;;24.08;43.19;100848.13;6305200;20;3565945;-53
2024/04/12 12:11:10;;;;;;;;;15.00;15.00;;;;;24.15;42.40;100859.38;6278306;20;3546156;-53
2024/04/12 12:13:42;;;;;;;;;11.00;11.00;;;;;23.85;42.70;100853.16;6305136;20;3505487;-52
2024/04/12 12:16:14;;;;;;;;;13.67;13.67;;;;;24.02;43.44;100842.41;6309402;20;3531626;-54
2024/04/12 12:18:44;;;;;;;;;15.67;14.67;;;;;24.06;43.17;100839.19;6305146;20;3550288;-53
2024/04/12 12:21:14;;;;;;;;;16.67;16.00;;;;;24.55;42.12;100833.41;6310582;20;3571172;-48
2024/04/12 12:23:41;;;;;;;;;14.00;14.00;;;;;24.25;42.64;100830.00;6275911;20;2483640;-52
2024/04/12 12:26:09;;;;;;;;;17.00;15.00;;;;;24.64;42.11;100824.19;6307351;20;3549345;-47
2024/04/12 12:28:36;;;;;;;;;16.00;16.00;;;;;24.45;41.98;100821.63;6307906;20;3567195;-49
2024/04/12 12:31:06;;;;;;;;;12.33;12.33;;;;;24.23;42.64;100821.03;6275718;20;2496108;-49
2024/04/12 12:33:38;;;;;;;;;16.33;12.67;;;;;24.04;42.94;100812.91;6311300;20;3536805;-50
2024/04/12 12:36:06;;;;;;;;;15.00;15.00;;;;;24.02;42.60;100806.75;6311696;20;2818024;-48